sensor_id;sensor_type;location;lat;lon;timestamp;P1;durP1;ratioP1;P2;durP2;ratioP2
44048;SDS011;29717;47.028;15.470;2023-05-02T00:02:17;8.38;;;5.60;;
44048;SDS011;29717;47.028;15.470;2023-05-02T00:04:43;7.28;;;6.57;;
44048;SDS011;29717;47.028;15.470;2023-05-02T00:07:10;7.05;;;6.32;;
44048;SDS011;29717;47.028;15.470;2023-05-02T00:09:37;6.53;;;5.93;;
44048;SDS011;29717;47.028;15.470;2023-05-02T00:12:04;8.50;;;5.97;;
44048;SDS011;29717;47.028;15.470;2023-05-02T00:14:31;7.15;;;6.13;;
44048;SDS011;29717;47.028;15.470;2023-05-02T00:16:58;6.95;;;6.03;;
44048;SDS011;29717;47.028;15.470;2023-05-02T00:19:32;7.78;;;5.97;;
44048;SDS011;29717;47.028;15.470;2023-05-02T00:22:03;7.88;;;6.50;;
44048;SDS011;29717;47.028;15.470;2023-05-02T00:24:29;7.20;;;5.95;;
44048;SDS011;29717;47.028;15.470;2023-05-02T00:26:57;6.65;;;5.95;;
44048;SDS011;29717;47.028;15.470;2023-05-02T00:29:24;6.18;;;5.57;;
44048;SDS011;29717;47.028;15.470;2023-05-02T00:31:50;7.25;;;6.18;;
44048;SDS011;29717;47.028;15.470;2023-05-02T00:34:17;6.22;;;5.63;;
44048;SDS011;29717;47.028;15.470;2023-05-02T00:36:45;6.57;;;5.97;;
44048;SDS011;29717;47.028;15.470;2023-05-02T00:39:13;6.18;;;5.68;;
44048;SDS011;29717;47.028;15.470;2023-05-02T00:41:40;6.25;;;5.65;;
44048;SDS011;29717;47.028;15.470;2023-05-02T00:44:08;6.43;;;5.82;;
44048;SDS011;29717;47.028;15.470;2023-05-02T00:46:35;8.55;;;6.18;;
44048;SDS011;29717;47.028;15.470;2023-05-02T00:49:01;6.68;;;5.03;;
44048;SDS011;29717;47.028;15.470;2023-05-02T00:51:28;6.60;;;5.80;;
44048;SDS011;29717;47.028;15.470;2023-05-02T00:53:56;6.22;;;5.63;;
44048;SDS011;29717;47.028;15.470;2023-05-02T00:56:23;6.90;;;6.00;;
44048;SDS011;29717;47.028;15.470;2023-05-02T00:58:51;10.05;;;6.18;;
44048;SDS011;29717;47.028;15.470;2023-05-02T01:01:22;7.22;;;5.85;;
44048;SDS011;29717;47.028;15.470;2023-05-02T01:03:54;8.40;;;5.78;;
44048;SDS011;29717;47.028;15.470;2023-05-02T01:06:32;6.32;;;5.65;;
44048;SDS011;29717;47.028;15.470;2023-05-02T01:09:05;7.32;;;6.63;;
44048;SDS011;29717;47.028;15.470;2023-05-02T01:11:39;6.43;;;5.70;;
44048;SDS011;29717;47.028;15.470;2023-05-02T01:14:10;6.15;;;5.55;;
44048;SDS011;29717;47.028;15.470;2023-05-02T01:16:37;8.32;;;6.32;;
44048;SDS011;29717;47.028;15.470;2023-05-02T01:19:07;7.30;;;6.32;;
44048;SDS011;29717;47.028;15.470;2023-05-02T01:21:35;6.75;;;6.05;;
44048;SDS011;29717;47.028;15.470;2023-05-02T01:24:07;6.95;;;6.00;;
44048;SDS011;29717;47.028;15.470;2023-05-02T01:26:40;7.18;;;5.95;;
44048;SDS011;29717;47.028;15.470;2023-05-02T01:29:13;10.50;;;5.97;;
44048;SDS011;29717;47.028;15.470;2023-05-02T01:31:41;7.85;;;5.60;;
44048;SDS011;29717;47.028;15.470;2023-05-02T01:34:09;6.32;;;5.72;;
44048;SDS011;29717;47.028;15.470;2023-05-02T01:36:37;6.72;;;6.13;;
44048;SDS011;29717;47.028;15.470;2023-05-02T01:39:07;6.30;;;5.70;;
44048;SDS011;29717;47.028;15.470;2023-05-02T01:41:35;6.05;;;5.45;;
44048;SDS011;29717;47.028;15.470;2023-05-02T01:44:03;6.47;;;5.60;;
44048;SDS011;29717;47.028;15.470;2023-05-02T01:46:33;7.28;;;5.97;;
44048;SDS011;29717;47.028;15.470;2023-05-02T01:49:02;5.93;;;5.43;;
44048;SDS011;29717;47.028;15.470;2023-05-02T01:51:32;6.47;;;5.65;;
44048;SDS011;29717;47.028;15.470;2023-05-02T01:54:00;6.65;;;5.65;;
44048;SDS011;29717;47.028;15.470;2023-05-02T01:56:28;6.30;;;5.70;;
44048;SDS011;29717;47.028;15.470;2023-05-02T01:58:57;7.68;;;5.30;;
44048;SDS011;29717;47.028;15.470;2023-05-02T02:01:25;7.50;;;5.72;;
44048;SDS011;29717;47.028;15.470;2023-05-02T02:03:55;5.88;;;5.38;;
44048;SDS011;29717;47.028;15.470;2023-05-02T02:06:22;7.13;;;5.47;;
44048;SDS011;29717;47.028;15.470;2023-05-02T02:08:48;6.07;;;5.45;;
44048;SDS011;29717;47.028;15.470;2023-05-02T02:11:17;6.50;;;5.40;;
44048;SDS011;29717;47.028;15.470;2023-05-02T02:13:47;7.38;;;6.00;;
44048;SDS011;29717;47.028;15.470;2023-05-02T02:16:17;7.53;;;6.00;;
44048;SDS011;29717;47.028;15.470;2023-05-02T02:18:44;6.13;;;5.50;;
44048;SDS011;29717;47.028;15.470;2023-05-02T02:21:13;6.38;;;5.78;;
44048;SDS011;29717;47.028;15.470;2023-05-02T02:23:42;6.55;;;5.88;;
44048;SDS011;29717;47.028;15.470;2023-05-02T02:26:12;6.78;;;6.00;;
44048;SDS011;29717;47.028;15.470;2023-05-02T02:28:40;6.05;;;5.53;;
44048;SDS011;29717;47.028;15.470;2023-05-02T02:31:07;7.40;;;5.55;;
44048;SDS011;29717;47.028;15.470;2023-05-02T02:33:34;7.13;;;6.53;;
44048;SDS011;29717;47.028;15.470;2023-05-02T02:36:04;9.38;;;7.40;;
44048;SDS011;29717;47.028;15.470;2023-05-02T02:38:36;6.40;;;5.80;;
44048;SDS011;29717;47.028;15.470;2023-05-02T02:41:05;7.35;;;5.90;;
44048;SDS011;29717;47.028;15.470;2023-05-02T02:43:43;10.55;;;5.88;;
44048;SDS011;29717;47.028;15.470;2023-05-02T02:46:16;9.05;;;6.03;;
44048;SDS011;29717;47.028;15.470;2023-05-02T02:48:47;8.52;;;5.95;;
44048;SDS011;29717;47.028;15.470;2023-05-02T02:51:20;6.50;;;5.78;;
44048;SDS011;29717;47.028;15.470;2023-05-02T02:53:53;6.57;;;5.97;;
44048;SDS011;29717;47.028;15.470;2023-05-02T02:56:25;7.05;;;6.43;;
44048;SDS011;29717;47.028;15.470;2023-05-02T02:58:59;6.80;;;6.18;;
44048;SDS011;29717;47.028;15.470;2023-05-02T03:01:29;9.43;;;6.45;;
44048;SDS011;29717;47.028;15.470;2023-05-02T03:03:56;6.60;;;5.90;;
44048;SDS011;29717;47.028;15.470;2023-05-02T03:06:24;8.77;;;6.50;;
44048;SDS011;29717;47.028;15.470;2023-05-02T03:08:53;7.95;;;6.05;;
44048;SDS011;29717;47.028;15.470;2023-05-02T03:11:20;7.07;;;6.18;;
44048;SDS011;29717;47.028;15.470;2023-05-02T03:13:47;6.93;;;6.32;;
44048;SDS011;29717;47.028;15.470;2023-05-02T03:18:59;9.75;;;6.97;;
44048;SDS011;29717;47.028;15.470;2023-05-02T03:21:26;8.43;;;7.20;;
44048;SDS011;29717;47.028;15.470;2023-05-02T03:23:57;8.20;;;7.13;;
44048;SDS011;29717;47.028;15.470;2023-05-02T03:26:24;7.85;;;7.05;;
44048;SDS011;29717;47.028;15.470;2023-05-02T03:28:51;7.93;;;7.13;;
44048;SDS011;29717;47.028;15.470;2023-05-02T03:31:17;9.20;;;7.38;;
44048;SDS011;29717;47.028;15.470;2023-05-02T03:33:44;7.90;;;7.10;;
44048;SDS011;29717;47.028;15.470;2023-05-02T03:36:11;8.20;;;7.40;;
44048;SDS011;29717;47.028;15.470;2023-05-02T03:38:38;8.45;;;7.60;;
44048;SDS011;29717;47.028;15.470;2023-05-02T03:41:07;8.38;;;7.57;;
44048;SDS011;29717;47.028;15.470;2023-05-02T03:43:34;9.98;;;7.82;;
44048;SDS011;29717;47.028;15.470;2023-05-02T03:46:05;10.07;;;8.52;;
44048;SDS011;29717;47.028;15.470;2023-05-02T03:48:33;12.02;;;7.45;;
44048;SDS011;29717;47.028;15.470;2023-05-02T03:51:01;9.18;;;7.75;;
44048;SDS011;29717;47.028;15.470;2023-05-02T03:53:28;8.75;;;7.55;;
44048;SDS011;29717;47.028;15.470;2023-05-02T03:55:55;8.80;;;7.57;;
44048;SDS011;29717;47.028;15.470;2023-05-02T03:58:23;8.77;;;7.95;;
44048;SDS011;29717;47.028;15.470;2023-05-02T04:00:51;10.77;;;7.80;;
44048;SDS011;29717;47.028;15.470;2023-05-02T04:03:18;9.18;;;7.63;;
44048;SDS011;29717;47.028;15.470;2023-05-02T04:05:45;9.00;;;8.13;;
44048;SDS011;29717;47.028;15.470;2023-05-02T04:08:11;9.75;;;8.23;;
44048;SDS011;29717;47.028;15.470;2023-05-02T04:10:38;9.15;;;8.20;;
44048;SDS011;29717;47.028;15.470;2023-05-02T04:13:05;9.82;;;8.23;;
44048;SDS011;29717;47.028;15.470;2023-05-02T04:15:33;12.10;;;8.57;;
44048;SDS011;29717;47.028;15.470;2023-05-02T04:18:00;8.60;;;7.40;;
44048;SDS011;29717;47.028;15.470;2023-05-02T04:20:28;8.70;;;7.88;;
44048;SDS011;29717;47.028;15.470;2023-05-02T04:22:54;8.68;;;7.65;;
44048;SDS011;29717;47.028;15.470;2023-05-02T04:25:21;8.63;;;7.82;;
44048;SDS011;29717;47.028;15.470;2023-05-02T04:27:48;8.50;;;7.70;;
44048;SDS011;29717;47.028;15.470;2023-05-02T04:30:15;10.30;;;7.95;;
44048;SDS011;29717;47.028;15.470;2023-05-02T04:32:43;13.82;;;8.50;;
44048;SDS011;29717;47.028;15.470;2023-05-02T04:35:10;8.80;;;7.90;;
44048;SDS011;29717;47.028;15.470;2023-05-02T04:37:36;7.03;;;6.43;;
44048;SDS011;29717;47.028;15.470;2023-05-02T04:40:03;8.27;;;7.43;;
44048;SDS011;29717;47.028;15.470;2023-05-02T04:42:31;8.25;;;7.45;;
44048;SDS011;29717;47.028;15.470;2023-05-02T04:44:57;10.52;;;6.68;;
44048;SDS011;29717;47.028;15.470;2023-05-02T04:47:24;7.72;;;6.35;;
44048;SDS011;29717;47.028;15.470;2023-05-02T04:49:52;7.72;;;7.07;;
44048;SDS011;29717;47.028;15.470;2023-05-02T04:52:22;8.25;;;7.45;;
44048;SDS011;29717;47.028;15.470;2023-05-02T04:54:49;9.70;;;6.82;;
44048;SDS011;29717;47.028;15.470;2023-05-02T04:57:16;9.13;;;7.28;;
44048;SDS011;29717;47.028;15.470;2023-05-02T04:59:43;7.85;;;7.05;;
44048;SDS011;29717;47.028;15.470;2023-05-02T05:02:10;7.40;;;6.68;;
44048;SDS011;29717;47.028;15.470;2023-05-02T05:04:37;8.40;;;6.97;;
44048;SDS011;29717;47.028;15.470;2023-05-02T05:07:05;7.40;;;6.70;;
44048;SDS011;29717;47.028;15.470;2023-05-02T05:09:32;11.27;;;7.53;;
44048;SDS011;29717;47.028;15.470;2023-05-02T05:11:59;9.82;;;7.03;;
44048;SDS011;29717;47.028;15.470;2023-05-02T05:14:26;7.45;;;6.75;;
44048;SDS011;29717;47.028;15.470;2023-05-02T05:16:53;8.43;;;6.95;;
44048;SDS011;29717;47.028;15.470;2023-05-02T05:19:22;8.75;;;6.93;;
44048;SDS011;29717;47.028;15.470;2023-05-02T05:21:49;7.93;;;7.13;;
44048;SDS011;29717;47.028;15.470;2023-05-02T05:24:18;8.30;;;7.38;;
44048;SDS011;29717;47.028;15.470;2023-05-02T05:26:45;8.45;;;7.35;;
44048;SDS011;29717;47.028;15.470;2023-05-02T05:29:12;7.63;;;6.90;;
44048;SDS011;29717;47.028;15.470;2023-05-02T05:31:39;7.90;;;7.15;;
44048;SDS011;29717;47.028;15.470;2023-05-02T05:34:06;7.68;;;6.88;;
44048;SDS011;29717;47.028;15.470;2023-05-02T05:36:33;9.00;;;7.63;;
44048;SDS011;29717;47.028;15.470;2023-05-02T05:39:01;7.68;;;6.97;;
44048;SDS011;29717;47.028;15.470;2023-05-02T05:41:30;8.55;;;7.43;;
44048;SDS011;29717;47.028;15.470;2023-05-02T05:43:57;8.30;;;7.47;;
44048;SDS011;29717;47.028;15.470;2023-05-02T05:46:24;8.32;;;7.32;;
44048;SDS011;29717;47.028;15.470;2023-05-02T05:48:51;8.90;;;7.93;;
44048;SDS011;29717;47.028;15.470;2023-05-02T05:51:18;7.80;;;7.10;;
44048;SDS011;29717;47.028;15.470;2023-05-02T05:53:44;8.27;;;7.47;;
44048;SDS011;29717;47.028;15.470;2023-05-02T05:56:11;9.75;;;8.38;;
44048;SDS011;29717;47.028;15.470;2023-05-02T05:58:40;8.90;;;8.00;;
44048;SDS011;29717;47.028;15.470;2023-05-02T06:01:08;9.27;;;8.13;;
44048;SDS011;29717;47.028;15.470;2023-05-02T06:03:35;10.25;;;8.20;;
44048;SDS011;29717;47.028;15.470;2023-05-02T06:06:02;9.48;;;8.52;;
44048;SDS011;29717;47.028;15.470;2023-05-02T06:08:29;10.00;;;8.88;;
44048;SDS011;29717;47.028;15.470;2023-05-02T06:10:56;9.15;;;8.25;;
44048;SDS011;29717;47.028;15.470;2023-05-02T06:13:23;10.50;;;8.18;;
44048;SDS011;29717;47.028;15.470;2023-05-02T06:15:51;9.80;;;8.80;;
44048;SDS011;29717;47.028;15.470;2023-05-02T06:18:17;15.57;;;9.65;;
44048;SDS011;29717;47.028;15.470;2023-05-02T06:20:44;10.75;;;9.57;;
44048;SDS011;29717;47.028;15.470;2023-05-02T06:23:11;11.80;;;8.90;;
44048;SDS011;29717;47.028;15.470;2023-05-02T06:25:38;9.85;;;8.85;;
44048;SDS011;29717;47.028;15.470;2023-05-02T06:28:05;9.50;;;8.60;;
44048;SDS011;29717;47.028;15.470;2023-05-02T06:30:33;9.55;;;8.55;;
44048;SDS011;29717;47.028;15.470;2023-05-02T06:33:04;8.98;;;8.07;;
44048;SDS011;29717;47.028;15.470;2023-05-02T06:35:31;12.23;;;8.77;;
44048;SDS011;29717;47.028;15.470;2023-05-02T06:37:59;9.85;;;7.78;;
44048;SDS011;29717;47.028;15.470;2023-05-02T06:40:26;10.05;;;8.35;;
44048;SDS011;29717;47.028;15.470;2023-05-02T06:42:53;12.50;;;8.45;;
44048;SDS011;29717;47.028;15.470;2023-05-02T06:45:20;8.95;;;8.02;;
44048;SDS011;29717;47.028;15.470;2023-05-02T06:47:47;10.95;;;8.25;;
44048;SDS011;29717;47.028;15.470;2023-05-02T06:50:15;12.00;;;8.13;;
44048;SDS011;29717;47.028;15.470;2023-05-02T06:52:42;9.68;;;8.50;;
44048;SDS011;29717;47.028;15.470;2023-05-02T06:55:09;8.90;;;7.80;;
44048;SDS011;29717;47.028;15.470;2023-05-02T06:57:36;7.65;;;6.90;;
44048;SDS011;29717;47.028;15.470;2023-05-02T07:00:04;9.52;;;7.60;;
44048;SDS011;29717;47.028;15.470;2023-05-02T07:02:31;11.95;;;8.10;;
44048;SDS011;29717;47.028;15.470;2023-05-02T07:04:57;10.98;;;8.55;;
44048;SDS011;29717;47.028;15.470;2023-05-02T07:07:26;9.40;;;7.18;;
44048;SDS011;29717;47.028;15.470;2023-05-02T07:09:58;10.07;;;7.35;;
44048;SDS011;29717;47.028;15.470;2023-05-02T07:12:30;10.13;;;7.13;;
44048;SDS011;29717;47.028;15.470;2023-05-02T07:15:06;8.93;;;7.28;;
44048;SDS011;29717;47.028;15.470;2023-05-02T07:17:34;9.27;;;7.35;;
44048;SDS011;29717;47.028;15.470;2023-05-02T07:20:01;9.43;;;7.07;;
44048;SDS011;29717;47.028;15.470;2023-05-02T07:22:30;8.43;;;7.28;;
44048;SDS011;29717;47.028;15.470;2023-05-02T07:24:57;7.05;;;6.38;;
44048;SDS011;29717;47.028;15.470;2023-05-02T07:27:24;8.18;;;6.97;;
44048;SDS011;29717;47.028;15.470;2023-05-02T07:29:51;9.02;;;7.15;;
44048;SDS011;29717;47.028;15.470;2023-05-02T07:34:48;9.27;;;7.10;;
44048;SDS011;29717;47.028;15.470;2023-05-02T07:37:18;7.70;;;6.95;;
44048;SDS011;29717;47.028;15.470;2023-05-02T07:39:46;7.53;;;6.75;;
44048;SDS011;29717;47.028;15.470;2023-05-02T07:42:13;7.63;;;6.65;;
44048;SDS011;29717;47.028;15.470;2023-05-02T07:44:40;9.25;;;6.47;;
44048;SDS011;29717;47.028;15.470;2023-05-02T07:47:07;9.27;;;6.55;;
44048;SDS011;29717;47.028;15.470;2023-05-02T07:49:34;6.97;;;6.38;;
44048;SDS011;29717;47.028;15.470;2023-05-02T07:52:02;7.65;;;6.15;;
44048;SDS011;29717;47.028;15.470;2023-05-02T07:54:29;6.80;;;6.15;;
44048;SDS011;29717;47.028;15.470;2023-05-02T07:56:58;7.88;;;6.15;;
44048;SDS011;29717;47.028;15.470;2023-05-02T07:59:28;7.05;;;5.85;;
44048;SDS011;29717;47.028;15.470;2023-05-02T08:01:55;8.98;;;6.50;;
44048;SDS011;29717;47.028;15.470;2023-05-02T08:04:21;8.57;;;6.28;;
44048;SDS011;29717;47.028;15.470;2023-05-02T08:06:48;7.05;;;6.35;;
44048;SDS011;29717;47.028;15.470;2023-05-02T08:09:15;6.82;;;6.13;;
44048;SDS011;29717;47.028;15.470;2023-05-02T08:11:42;7.10;;;6.05;;
44048;SDS011;29717;47.028;15.470;2023-05-02T08:14:11;6.57;;;5.40;;
44048;SDS011;29717;47.028;15.470;2023-05-02T08:16:37;10.15;;;6.05;;
44048;SDS011;29717;47.028;15.470;2023-05-02T08:19:04;6.70;;;5.90;;
44048;SDS011;29717;47.028;15.470;2023-05-02T08:21:31;7.63;;;5.93;;
44048;SDS011;29717;47.028;15.470;2023-05-02T08:23:58;5.40;;;4.90;;
44048;SDS011;29717;47.028;15.470;2023-05-02T08:26:25;6.45;;;5.35;;
44048;SDS011;29717;47.028;15.470;2023-05-02T08:28:52;6.32;;;5.40;;
44048;SDS011;29717;47.028;15.470;2023-05-02T08:31:21;5.55;;;5.05;;
44048;SDS011;29717;47.028;15.470;2023-05-02T08:33:48;5.70;;;5.10;;
44048;SDS011;29717;47.028;15.470;2023-05-02T08:36:15;5.97;;;5.35;;
44048;SDS011;29717;47.028;15.470;2023-05-02T08:38:42;5.50;;;5.00;;
44048;SDS011;29717;47.028;15.470;2023-05-02T08:41:09;6.45;;;4.57;;
44048;SDS011;29717;47.028;15.470;2023-05-02T08:43:38;7.22;;;5.18;;
44048;SDS011;29717;47.028;15.470;2023-05-02T08:46:05;5.57;;;4.88;;
44048;SDS011;29717;47.028;15.470;2023-05-02T08:48:36;5.85;;;4.53;;
44048;SDS011;29717;47.028;15.470;2023-05-02T08:51:05;6.13;;;4.80;;
44048;SDS011;29717;47.028;15.470;2023-05-02T08:53:34;5.07;;;4.57;;
44048;SDS011;29717;47.028;15.470;2023-05-02T08:56:01;5.03;;;4.47;;
44048;SDS011;29717;47.028;15.470;2023-05-02T08:58:28;4.82;;;4.40;;
44048;SDS011;29717;47.028;15.470;2023-05-02T09:00:56;4.88;;;4.15;;
44048;SDS011;29717;47.028;15.470;2023-05-02T09:03:26;4.85;;;4.35;;
44048;SDS011;29717;47.028;15.470;2023-05-02T09:05:57;4.32;;;3.90;;
44048;SDS011;29717;47.028;15.470;2023-05-02T09:08:29;3.92;;;3.55;;
44048;SDS011;29717;47.028;15.470;2023-05-02T09:10:56;4.07;;;3.78;;
44048;SDS011;29717;47.028;15.470;2023-05-02T09:13:30;4.05;;;3.67;;
44048;SDS011;29717;47.028;15.470;2023-05-02T09:15:57;5.82;;;4.28;;
44048;SDS011;29717;47.028;15.470;2023-05-02T09:18:27;6.35;;;4.10;;
44048;SDS011;29717;47.028;15.470;2023-05-02T09:20:55;4.15;;;3.60;;
44048;SDS011;29717;47.028;15.470;2023-05-02T09:23:30;3.95;;;3.60;;
44048;SDS011;29717;47.028;15.470;2023-05-02T09:25:58;5.20;;;3.75;;
44048;SDS011;29717;47.028;15.470;2023-05-02T09:28:37;3.42;;;3.13;;
44048;SDS011;29717;47.028;15.470;2023-05-02T09:31:05;3.70;;;3.40;;
44048;SDS011;29717;47.028;15.470;2023-05-02T09:33:32;3.88;;;3.58;;
44048;SDS011;29717;47.028;15.470;2023-05-02T09:36:00;3.58;;;3.28;;
44048;SDS011;29717;47.028;15.470;2023-05-02T09:38:28;3.30;;;3.00;;
44048;SDS011;29717;47.028;15.470;2023-05-02T09:40:54;3.17;;;2.88;;
44048;SDS011;29717;47.028;15.470;2023-05-02T09:43:21;3.50;;;3.17;;
44048;SDS011;29717;47.028;15.470;2023-05-02T09:45:55;3.33;;;3.03;;
44048;SDS011;29717;47.028;15.470;2023-05-02T09:48:22;3.58;;;3.10;;
44048;SDS011;29717;47.028;15.470;2023-05-02T09:50:50;4.45;;;2.60;;
44048;SDS011;29717;47.028;15.470;2023-05-02T09:53:19;4.10;;;2.65;;
44048;SDS011;29717;47.028;15.470;2023-05-02T09:55:46;2.90;;;2.60;;
44048;SDS011;29717;47.028;15.470;2023-05-02T09:58:19;3.15;;;2.85;;
44048;SDS011;29717;47.028;15.470;2023-05-02T10:00:46;2.65;;;2.30;;
44048;SDS011;29717;47.028;15.470;2023-05-02T10:03:14;3.55;;;2.53;;
44048;SDS011;29717;47.028;15.470;2023-05-02T10:05:41;2.88;;;2.60;;
44048;SDS011;29717;47.028;15.470;2023-05-02T10:08:08;2.58;;;2.38;;
44048;SDS011;29717;47.028;15.470;2023-05-02T10:10:37;2.58;;;2.38;;
44048;SDS011;29717;47.028;15.470;2023-05-02T10:13:04;3.20;;;2.50;;
44048;SDS011;29717;47.028;15.470;2023-05-02T10:15:32;2.10;;;2.00;;
44048;SDS011;29717;47.028;15.470;2023-05-02T10:17:59;2.15;;;2.00;;
44048;SDS011;29717;47.028;15.470;2023-05-02T10:20:29;2.60;;;2.40;;
44048;SDS011;29717;47.028;15.470;2023-05-02T10:22:58;5.63;;;3.00;;
44048;SDS011;29717;47.028;15.470;2023-05-02T10:25:25;3.55;;;2.55;;
44048;SDS011;29717;47.028;15.470;2023-05-02T10:27:53;2.33;;;2.13;;
44048;SDS011;29717;47.028;15.470;2023-05-02T10:30:21;7.45;;;2.38;;
44048;SDS011;29717;47.028;15.470;2023-05-02T10:32:49;2.55;;;2.35;;
44048;SDS011;29717;47.028;15.470;2023-05-02T10:35:16;2.45;;;2.25;;
44048;SDS011;29717;47.028;15.470;2023-05-02T10:37:43;2.60;;;2.40;;
44048;SDS011;29717;47.028;15.470;2023-05-02T10:40:11;2.10;;;2.00;;
44048;SDS011;29717;47.028;15.470;2023-05-02T10:42:38;2.60;;;2.40;;
44048;SDS011;29717;47.028;15.470;2023-05-02T10:45:10;2.60;;;2.40;;
44048;SDS011;29717;47.028;15.470;2023-05-02T10:47:37;2.50;;;2.30;;
44048;SDS011;29717;47.028;15.470;2023-05-02T10:50:04;3.70;;;2.25;;
44048;SDS011;29717;47.028;15.470;2023-05-02T10:52:33;2.10;;;1.90;;
44048;SDS011;29717;47.028;15.470;2023-05-02T10:55:13;2.55;;;2.35;;
44048;SDS011;29717;47.028;15.470;2023-05-02T11:00:24;2.30;;;2.10;;
44048;SDS011;29717;47.028;15.470;2023-05-02T11:02:51;2.35;;;2.15;;
44048;SDS011;29717;47.028;15.470;2023-05-02T11:05:18;2.58;;;2.38;;
44048;SDS011;29717;47.028;15.470;2023-05-02T11:07:44;2.10;;;1.90;;
44048;SDS011;29717;47.028;15.470;2023-05-02T11:10:23;3.05;;;2.15;;
44048;SDS011;29717;47.028;15.470;2023-05-02T11:12:53;2.78;;;2.58;;
44048;SDS011;29717;47.028;15.470;2023-05-02T11:18:06;2.38;;;2.10;;
44048;SDS011;29717;47.028;15.470;2023-05-02T11:20:33;2.38;;;2.13;;
44048;SDS011;29717;47.028;15.470;2023-05-02T11:25:46;4.00;;;2.30;;
44048;SDS011;29717;47.028;15.470;2023-05-02T11:30:54;2.28;;;2.00;;
44048;SDS011;29717;47.028;15.470;2023-05-02T11:33:23;2.50;;;2.30;;
44048;SDS011;29717;47.028;15.470;2023-05-02T11:35:49;2.60;;;2.28;;
44048;SDS011;29717;47.028;15.470;2023-05-02T11:38:17;2.78;;;2.40;;
44048;SDS011;29717;47.028;15.470;2023-05-02T11:43:29;2.85;;;2.25;;
44048;SDS011;29717;47.028;15.470;2023-05-02T11:45:56;2.33;;;2.13;;
44048;SDS011;29717;47.028;15.470;2023-05-02T11:48:26;4.28;;;2.50;;
44048;SDS011;29717;47.028;15.470;2023-05-02T11:50:54;2.30;;;2.10;;
44048;SDS011;29717;47.028;15.470;2023-05-02T11:53:22;2.28;;;2.08;;
44048;SDS011;29717;47.028;15.470;2023-05-02T11:55:50;2.47;;;2.28;;
44048;SDS011;29717;47.028;15.470;2023-05-02T11:58:18;2.25;;;2.05;;
44048;SDS011;29717;47.028;15.470;2023-05-02T12:00:45;2.40;;;2.20;;
44048;SDS011;29717;47.028;15.470;2023-05-02T12:03:19;2.53;;;2.20;;
44048;SDS011;29717;47.028;15.470;2023-05-02T12:05:49;2.40;;;2.20;;
44048;SDS011;29717;47.028;15.470;2023-05-02T12:08:20;2.33;;;1.90;;
44048;SDS011;29717;47.028;15.470;2023-05-02T12:10:47;2.78;;;2.15;;
44048;SDS011;29717;47.028;15.470;2023-05-02T12:13:16;2.83;;;2.10;;
44048;SDS011;29717;47.028;15.470;2023-05-02T12:15:42;2.78;;;2.30;;
44048;SDS011;29717;47.028;15.470;2023-05-02T12:18:10;4.63;;;2.42;;
44048;SDS011;29717;47.028;15.470;2023-05-02T12:20:37;3.35;;;2.13;;
44048;SDS011;29717;47.028;15.470;2023-05-02T12:23:07;3.42;;;2.22;;
44048;SDS011;29717;47.028;15.470;2023-05-02T12:25:38;4.13;;;2.60;;
44048;SDS011;29717;47.028;15.470;2023-05-02T12:28:05;3.33;;;2.50;;
44048;SDS011;29717;47.028;15.470;2023-05-02T12:30:33;2.90;;;2.20;;
44048;SDS011;29717;47.028;15.470;2023-05-02T12:33:01;3.85;;;2.03;;
44048;SDS011;29717;47.028;15.470;2023-05-02T12:35:28;2.20;;;1.98;;
44048;SDS011;29717;47.028;15.470;2023-05-02T12:38:08;2.47;;;2.25;;
44048;SDS011;29717;47.028;15.470;2023-05-02T12:40:36;5.20;;;2.33;;
44048;SDS011;29717;47.028;15.470;2023-05-02T12:43:04;3.47;;;2.30;;
44048;SDS011;29717;47.028;15.470;2023-05-02T12:45:34;2.00;;;1.80;;
44048;SDS011;29717;47.028;15.470;2023-05-02T12:48:02;2.13;;;2.03;;
44048;SDS011;29717;47.028;15.470;2023-05-02T12:50:42;2.47;;;2.25;;
44048;SDS011;29717;47.028;15.470;2023-05-02T12:53:10;3.03;;;2.15;;
44048;SDS011;29717;47.028;15.470;2023-05-02T12:55:37;2.15;;;1.95;;
44048;SDS011;29717;47.028;15.470;2023-05-02T12:58:05;2.40;;;2.08;;
44048;SDS011;29717;47.028;15.470;2023-05-02T13:00:34;2.45;;;2.15;;
44048;SDS011;29717;47.028;15.470;2023-05-02T13:03:02;2.53;;;2.08;;
44048;SDS011;29717;47.028;15.470;2023-05-02T13:05:29;3.78;;;2.38;;
44048;SDS011;29717;47.028;15.470;2023-05-02T13:07:55;2.03;;;1.83;;
44048;SDS011;29717;47.028;15.470;2023-05-02T13:10:25;2.00;;;1.88;;
44048;SDS011;29717;47.028;15.470;2023-05-02T13:12:52;2.63;;;2.17;;
44048;SDS011;29717;47.028;15.470;2023-05-02T13:15:19;1.92;;;1.83;;
44048;SDS011;29717;47.028;15.470;2023-05-02T13:17:48;1.92;;;1.65;;
44048;SDS011;29717;47.028;15.470;2023-05-02T13:20:15;5.85;;;2.38;;
44048;SDS011;29717;47.028;15.470;2023-05-02T13:22:42;2.55;;;2.35;;
44048;SDS011;29717;47.028;15.470;2023-05-02T13:25:09;1.88;;;1.70;;
44048;SDS011;29717;47.028;15.470;2023-05-02T13:27:37;3.03;;;2.05;;
44048;SDS011;29717;47.028;15.470;2023-05-02T13:30:06;3.30;;;1.92;;
44048;SDS011;29717;47.028;15.470;2023-05-02T13:32:33;2.60;;;1.80;;
44048;SDS011;29717;47.028;15.470;2023-05-02T13:35:00;3.88;;;1.90;;
44048;SDS011;29717;47.028;15.470;2023-05-02T13:37:28;2.10;;;1.90;;
44048;SDS011;29717;47.028;15.470;2023-05-02T13:39:55;1.75;;;1.65;;
44048;SDS011;29717;47.028;15.470;2023-05-02T13:42:22;1.80;;;1.70;;
44048;SDS011;29717;47.028;15.470;2023-05-02T13:44:50;1.88;;;1.75;;
44048;SDS011;29717;47.028;15.470;2023-05-02T13:47:17;1.75;;;1.65;;
44048;SDS011;29717;47.028;15.470;2023-05-02T13:49:44;1.90;;;1.55;;
44048;SDS011;29717;47.028;15.470;2023-05-02T13:52:11;2.03;;;1.52;;
44048;SDS011;29717;47.028;15.470;2023-05-02T13:54:38;3.05;;;1.40;;
44048;SDS011;29717;47.028;15.470;2023-05-02T13:57:04;1.50;;;1.40;;
44048;SDS011;29717;47.028;15.470;2023-05-02T13:59:31;2.72;;;1.50;;
44048;SDS011;29717;47.028;15.470;2023-05-02T14:02:00;1.98;;;1.60;;
44048;SDS011;29717;47.028;15.470;2023-05-02T14:04:26;1.77;;;1.40;;
44048;SDS011;29717;47.028;15.470;2023-05-02T14:06:53;2.13;;;1.67;;
44048;SDS011;29717;47.028;15.470;2023-05-02T14:09:20;1.30;;;1.20;;
44048;SDS011;29717;47.028;15.470;2023-05-02T14:11:46;1.60;;;1.30;;
44048;SDS011;29717;47.028;15.470;2023-05-02T14:14:13;2.33;;;1.60;;
44048;SDS011;29717;47.028;15.470;2023-05-02T14:16:40;1.42;;;1.33;;
44048;SDS011;29717;47.028;15.470;2023-05-02T14:19:08;1.40;;;1.30;;
44048;SDS011;29717;47.028;15.470;2023-05-02T14:21:35;2.53;;;1.48;;
44048;SDS011;29717;47.028;15.470;2023-05-02T14:24:03;2.78;;;1.10;;
44048;SDS011;29717;47.028;15.470;2023-05-02T14:26:30;1.33;;;1.20;;
44048;SDS011;29717;47.028;15.470;2023-05-02T14:28:58;2.92;;;1.05;;
44048;SDS011;29717;47.028;15.470;2023-05-02T14:31:26;1.40;;;1.13;;
44048;SDS011;29717;47.028;15.470;2023-05-02T14:33:53;1.88;;;1.20;;
44048;SDS011;29717;47.028;15.470;2023-05-02T14:36:21;1.33;;;1.00;;
44048;SDS011;29717;47.028;15.470;2023-05-02T14:38:48;1.98;;;1.15;;
44048;SDS011;29717;47.028;15.470;2023-05-02T14:41:15;1.17;;;1.05;;
44048;SDS011;29717;47.028;15.470;2023-05-02T14:43:42;2.25;;;1.10;;
44048;SDS011;29717;47.028;15.470;2023-05-02T14:46:08;1.20;;;1.10;;
44048;SDS011;29717;47.028;15.470;2023-05-02T14:48:35;1.20;;;1.10;;
44048;SDS011;29717;47.028;15.470;2023-05-02T14:51:02;1.23;;;1.10;;
44048;SDS011;29717;47.028;15.470;2023-05-02T14:53:30;1.13;;;1.02;;
44048;SDS011;29717;47.028;15.470;2023-05-02T14:55:57;1.17;;;1.08;;
44048;SDS011;29717;47.028;15.470;2023-05-02T14:58:24;1.58;;;0.77;;